createdAt,value
2019-03-24T00:02:04.364Z,63.20
2019-03-24T00:04:28.847Z,63.62
2019-03-24T00:06:53.460Z,63.63
2019-03-24T00:09:17.870Z,63.33
2019-03-24T00:11:42.379Z,63.08
2019-03-24T00:14:06.977Z,63.54
2019-03-24T00:16:31.361Z,63.96
2019-03-24T00:18:55.856Z,63.69
2019-03-24T00:21:20.496Z,63.76
2019-03-24T00:23:44.920Z,64.89
2019-03-24T00:26:09.474Z,65.36
2019-03-24T00:28:34.166Z,64.39
2019-03-24T00:30:58.649Z,64.04
2019-03-24T00:33:23.132Z,63.82
2019-03-24T00:35:47.536Z,63.93
2019-03-24T00:38:11.975Z,64.03
2019-03-24T00:40:36.383Z,64.04
2019-03-24T00:43:00.821Z,64.02
2019-03-24T00:45:25.244Z,63.85
2019-03-24T00:47:49.786Z,64.05
2019-03-24T00:50:14.215Z,64.22
2019-03-24T00:52:38.771Z,64.12
2019-03-24T00:55:03.385Z,63.95
2019-03-24T00:57:27.795Z,64.91
2019-03-24T00:59:52.254Z,64.61
2019-03-24T01:02:16.681Z,65.07
2019-03-24T01:04:41.273Z,65.19
2019-03-24T01:07:06.003Z,65.18
2019-03-24T01:09:30.583Z,64.96
2019-03-24T01:11:55.004Z,64.76
2019-03-24T01:14:19.520Z,64.65
2019-03-24T01:16:44.016Z,65.38
2019-03-24T01:19:08.605Z,65.44
2019-03-24T01:21:33.063Z,64.95
2019-03-24T01:23:57.495Z,64.34
2019-03-24T01:26:21.897Z,64.33
2019-03-24T01:28:46.330Z,65.09
2019-03-24T01:31:10.811Z,65.02
2019-03-24T01:33:35.237Z,65.08
2019-03-24T01:35:59.675Z,64.83
2019-03-24T01:38:24.080Z,64.62
2019-03-24T01:40:48.526Z,64.66
2019-03-24T01:43:13.015Z,64.44
2019-03-24T01:45:37.523Z,64.01
2019-03-24T01:48:01.933Z,63.83
2019-03-24T01:50:26.526Z,64.19
2019-03-24T01:52:51.075Z,64.02
2019-03-24T01:55:15.602Z,64.04
2019-03-24T01:57:40.071Z,65.09
2019-03-24T02:00:08.055Z,65.04
2019-03-24T02:02:32.536Z,65.03
2019-03-24T02:04:56.961Z,65.25
2019-03-24T02:07:21.430Z,65.17
2019-03-24T02:09:45.883Z,64.86
2019-03-24T02:12:10.363Z,64.77
2019-03-24T02:14:34.800Z,65.27
2019-03-24T02:16:59.397Z,65.40
2019-03-24T02:19:23.786Z,65.12
2019-03-24T02:21:48.304Z,65.33
2019-03-24T02:24:12.784Z,65.34
2019-03-24T02:26:37.284Z,64.96
2019-03-24T02:29:01.703Z,64.85
2019-03-24T02:31:26.205Z,65.13
2019-03-24T02:33:50.622Z,65.26
2019-03-24T02:36:15.235Z,65.08
2019-03-24T02:38:39.649Z,64.93
2019-03-24T02:41:04.146Z,65.45
2019-03-24T02:43:28.559Z,64.96
2019-03-24T02:45:52.995Z,65.01
2019-03-24T02:48:17.395Z,65.06
2019-03-24T02:50:41.912Z,65.77
2019-03-24T02:53:06.476Z,64.88
2019-03-24T02:55:30.917Z,65.09
2019-03-24T02:57:55.331Z,65.13
2019-03-24T03:00:19.890Z,64.49
2019-03-24T03:02:44.367Z,64.65
2019-03-24T03:05:09.327Z,64.62
2019-03-24T03:07:33.817Z,64.84
2019-03-24T03:09:58.264Z,64.76
2019-03-24T03:12:22.668Z,64.67
2019-03-24T03:14:47.082Z,65.19
2019-03-24T03:17:11.653Z,65.64
2019-03-24T03:19:36.069Z,65.79
2019-03-24T03:22:00.504Z,66.51
2019-03-24T03:24:24.929Z,66.29
2019-03-24T03:26:49.370Z,66.06
2019-03-24T03:29:13.788Z,65.37
2019-03-24T03:31:38.334Z,65.60
2019-03-24T03:34:02.740Z,65.71
2019-03-24T03:36:27.206Z,65.86
2019-03-24T03:38:51.605Z,66.08
2019-03-24T03:41:16.101Z,66.49
2019-03-24T03:43:40.529Z,66.49
2019-03-24T03:46:05.398Z,66.43
2019-03-24T03:48:29.805Z,66.57
2019-03-24T03:50:54.290Z,66.99
2019-03-24T03:53:18.790Z,67.09
2019-03-24T03:55:43.204Z,67.06
2019-03-24T03:58:07.643Z,66.46
2019-03-24T04:00:33.797Z,67.83
2019-03-24T04:02:58.247Z,67.49
2019-03-24T04:05:22.671Z,67.95
2019-03-24T04:07:47.105Z,68.06
2019-03-24T04:10:11.651Z,67.47
2019-03-24T04:12:36.160Z,67.93
2019-03-24T04:15:00.781Z,67.25
2019-03-24T04:17:25.348Z,67.00
2019-03-24T04:19:49.756Z,67.02
2019-03-24T04:22:14.201Z,66.86
2019-03-24T04:24:38.610Z,67.85
2019-03-24T04:27:03.042Z,67.55
2019-03-24T04:29:27.452Z,66.91
2019-03-24T04:31:51.888Z,66.75
2019-03-24T04:34:16.292Z,66.83
2019-03-24T04:36:40.693Z,66.46
2019-03-24T04:39:06.758Z,66.42
2019-03-24T04:41:31.180Z,66.24
2019-03-24T04:43:55.622Z,66.41
2019-03-24T04:46:20.297Z,66.56
2019-03-24T04:48:44.808Z,66.84
2019-03-24T04:51:09.225Z,67.08
2019-03-24T04:53:33.657Z,67.04
2019-03-24T04:55:58.061Z,67.65
2019-03-24T04:58:22.467Z,67.48
2019-03-24T05:00:46.875Z,67.68
2019-03-24T05:03:11.311Z,67.21
2019-03-24T05:05:35.791Z,67.13
2019-03-24T05:08:00.671Z,67.09
2019-03-24T05:10:28.740Z,67.42
2019-03-24T05:12:53.172Z,67.17
2019-03-24T05:15:17.582Z,67.15
2019-03-24T05:17:42.014Z,67.45
2019-03-24T05:20:07.465Z,67.83
2019-03-24T05:22:31.909Z,67.73
2019-03-24T05:24:56.386Z,67.95
2019-03-24T05:27:20.798Z,67.40
2019-03-24T05:29:45.297Z,67.38
2019-03-24T05:32:09.712Z,67.84
2019-03-24T05:34:34.143Z,67.93
2019-03-24T05:36:58.552Z,67.99
2019-03-24T05:39:22.981Z,68.06
2019-03-24T05:41:47.387Z,67.62
2019-03-24T05:44:11.823Z,68.71
2019-03-24T05:46:36.239Z,67.84
2019-03-24T05:49:00.668Z,67.93
2019-03-24T05:51:25.117Z,68.28
2019-03-24T05:53:49.565Z,67.97
2019-03-24T05:56:14.046Z,68.08
2019-03-24T05:58:38.486Z,68.19
2019-03-24T06:01:02.961Z,68.50
2019-03-24T06:03:27.394Z,69.35
2019-03-24T06:05:51.879Z,70.87
2019-03-24T06:08:16.307Z,69.73
2019-03-24T06:10:44.131Z,68.69
2019-03-24T06:13:08.547Z,68.29
2019-03-24T06:15:35.099Z,67.83
2019-03-24T06:17:59.503Z,67.93
2019-03-24T06:20:24.006Z,67.92
2019-03-24T06:22:48.429Z,69.76
2019-03-24T06:25:12.972Z,70.95
2019-03-24T06:27:37.369Z,70.43
2019-03-24T06:30:01.984Z,71.84
2019-03-24T06:32:26.520Z,70.44
2019-03-24T06:34:50.945Z,69.46
2019-03-24T06:37:15.381Z,69.01
2019-03-24T06:39:39.806Z,68.78
2019-03-24T06:42:04.281Z,69.38
2019-03-24T06:44:28.738Z,69.09
2019-03-24T06:46:53.161Z,68.65
2019-03-24T06:49:17.584Z,68.26
2019-03-24T06:51:41.997Z,68.25
2019-03-24T06:54:06.509Z,68.29
2019-03-24T06:56:30.918Z,67.86
2019-03-24T06:58:55.333Z,68.24
2019-03-24T07:01:19.826Z,70.19
2019-03-24T07:03:44.316Z,71.70
2019-03-24T07:06:08.724Z,71.03
2019-03-24T07:08:33.966Z,70.52
2019-03-24T07:10:58.400Z,70.22
2019-03-24T07:13:22.814Z,71.59
2019-03-24T07:15:47.251Z,71.89
2019-03-24T07:18:11.789Z,72.00
2019-03-24T07:20:36.229Z,71.82
2019-03-24T07:23:00.636Z,72.16
2019-03-24T07:25:25.219Z,71.80
2019-03-24T07:27:49.636Z,73.37
2019-03-24T07:30:14.721Z,72.79
2019-03-24T07:32:39.116Z,71.17
2019-03-24T07:35:04.326Z,71.24
2019-03-24T07:37:28.754Z,72.45
2019-03-24T07:39:53.166Z,71.96
2019-03-24T07:42:17.741Z,71.66
2019-03-24T07:44:42.149Z,71.53
2019-03-24T07:47:14.402Z,71.43
2019-03-24T07:49:38.809Z,73.40
2019-03-24T07:52:03.335Z,72.91
2019-03-24T07:54:27.731Z,72.27
2019-03-24T07:56:52.235Z,71.82
2019-03-24T07:59:16.660Z,71.43
2019-03-24T08:01:41.136Z,71.01
2019-03-24T08:04:06.050Z,70.55
2019-03-24T08:06:30.554Z,70.87
2019-03-24T08:08:54.973Z,70.84
2019-03-24T08:11:19.413Z,69.61
2019-03-24T08:13:53.113Z,70.08
2019-03-24T08:16:10.011Z,70.83
2019-03-24T08:18:34.418Z,70.66
2019-03-24T08:20:58.835Z,71.45
2019-03-24T08:23:23.348Z,70.48
2019-03-24T08:25:47.827Z,70.67
2019-03-24T08:28:12.264Z,70.39
2019-03-24T08:30:37.422Z,70.15
2019-03-24T08:33:03.463Z,69.73
2019-03-24T08:35:27.865Z,68.83
2019-03-24T08:37:52.421Z,68.42
2019-03-24T08:40:16.971Z,65.95
2019-03-24T08:42:41.402Z,65.44
2019-03-24T08:45:06.852Z,64.33
2019-03-24T08:47:31.292Z,63.46
2019-03-24T08:49:55.692Z,63.14
2019-03-24T08:52:20.192Z,62.98
2019-03-24T08:54:44.598Z,62.46
2019-03-24T08:57:09.041Z,62.61
2019-03-24T08:59:33.453Z,62.75
2019-03-24T09:01:57.905Z,63.64
2019-03-24T09:04:22.315Z,63.98
2019-03-24T09:06:46.741Z,62.26
2019-03-24T09:09:11.228Z,60.63
2019-03-24T09:11:35.650Z,60.63
2019-03-24T09:14:00.089Z,60.13
2019-03-24T09:16:24.619Z,59.09
2019-03-24T09:18:52.935Z,58.63
2019-03-24T09:21:15.372Z,58.16
2019-03-24T09:23:39.810Z,58.78
2019-03-24T09:26:04.299Z,59.54
2019-03-24T09:28:28.805Z,59.74
2019-03-24T09:30:53.284Z,59.82
2019-03-24T09:33:17.721Z,59.95
2019-03-24T09:35:42.130Z,58.81
2019-03-24T09:38:06.702Z,59.29
2019-03-24T09:40:33.153Z,58.31
2019-03-24T09:42:59.723Z,57.17
2019-03-24T09:45:24.120Z,56.60
2019-03-24T09:47:48.595Z,57.67
2019-03-24T09:50:13.136Z,57.57
2019-03-24T09:52:37.568Z,57.59
2019-03-24T09:55:01.992Z,56.25
2019-03-24T09:57:26.421Z,56.25
2019-03-24T09:59:50.828Z,55.87
2019-03-24T10:02:15.277Z,56.57
2019-03-24T10:04:39.683Z,57.03
2019-03-24T10:07:04.158Z,56.31
2019-03-24T10:09:28.677Z,55.83
2019-03-24T10:11:53.084Z,54.82
2019-03-24T10:14:17.515Z,55.67
2019-03-24T10:16:42.222Z,56.05
2019-03-24T10:19:14.041Z,55.61
2019-03-24T10:21:32.900Z,55.52
2019-03-24T10:23:57.433Z,53.89
2019-03-24T10:26:21.849Z,52.34
2019-03-24T10:28:46.350Z,51.18
2019-03-24T10:31:10.759Z,51.51
2019-03-24T10:33:35.184Z,51.34
2019-03-24T10:35:59.746Z,53.63
2019-03-24T10:38:24.185Z,53.78
2019-03-24T10:40:48.703Z,52.79
2019-03-24T10:43:13.209Z,54.79
2019-03-24T10:45:37.614Z,50.65
2019-03-24T10:48:02.115Z,51.22
2019-03-24T10:50:26.527Z,49.98
2019-03-24T10:52:50.962Z,50.50
2019-03-24T10:55:15.506Z,48.91
2019-03-24T10:57:40.015Z,48.93
2019-03-24T11:00:07.557Z,47.86
2019-03-24T11:02:32.000Z,47.58
2019-03-24T11:04:56.421Z,47.15
2019-03-24T11:07:21.557Z,49.62
2019-03-24T11:09:46.585Z,48.37
2019-03-24T11:12:11.068Z,45.99
2019-03-24T11:14:35.489Z,48.73
2019-03-24T11:16:59.890Z,49.38
2019-03-24T11:19:34.995Z,48.75
2019-03-24T11:21:50.421Z,47.10
2019-03-24T11:24:14.849Z,46.07
2019-03-24T11:26:39.260Z,47.48
2019-03-24T11:29:03.687Z,46.27
2019-03-24T11:31:28.338Z,43.86
2019-03-24T11:33:52.762Z,42.93
2019-03-24T11:36:17.244Z,42.48
2019-03-24T11:38:41.677Z,41.33
2019-03-24T11:41:06.167Z,41.78
2019-03-24T11:43:30.598Z,42.91
2019-03-24T11:45:55.009Z,42.79
2019-03-24T11:48:19.444Z,41.38
2019-03-24T11:50:43.844Z,41.63
2019-03-24T11:53:09.834Z,41.25
2019-03-24T11:55:34.303Z,41.49
2019-03-24T11:58:05.713Z,40.45
2019-03-24T12:00:36.826Z,40.47
2019-03-24T12:03:01.238Z,41.65
2019-03-24T12:05:25.672Z,43.00
2019-03-24T12:07:50.073Z,43.00
2019-03-24T12:10:14.964Z,42.39
2019-03-24T12:12:39.422Z,42.18
2019-03-24T12:15:05.499Z,41.22
2019-03-24T12:17:29.926Z,41.25
2019-03-24T12:19:57.058Z,44.13
2019-03-24T12:22:20.536Z,43.48
2019-03-24T12:24:44.985Z,41.74
2019-03-24T12:27:09.403Z,41.57
2019-03-24T12:29:33.915Z,41.48
2019-03-24T12:31:58.429Z,41.23
2019-03-24T12:34:22.870Z,42.08
2019-03-24T12:36:47.285Z,40.46
2019-03-24T12:39:11.773Z,41.71
2019-03-24T12:41:36.187Z,39.17
2019-03-24T12:44:00.628Z,38.95
2019-03-24T12:46:25.105Z,38.40
2019-03-24T12:48:49.498Z,39.00
2019-03-24T12:51:13.935Z,39.56
2019-03-24T12:53:38.344Z,40.02
2019-03-24T12:56:02.924Z,39.35
2019-03-24T12:58:27.331Z,39.69
2019-03-24T13:00:51.759Z,39.30
2019-03-24T13:03:16.182Z,41.07
2019-03-24T13:05:40.750Z,39.04
2019-03-24T13:08:13.420Z,39.39
2019-03-24T13:10:37.981Z,39.88
2019-03-24T13:13:02.396Z,39.81
2019-03-24T13:15:26.845Z,39.56
2019-03-24T13:17:51.336Z,39.41
2019-03-24T13:20:22.526Z,41.71
2019-03-24T13:22:41.949Z,42.14
2019-03-24T13:25:07.615Z,41.91
2019-03-24T13:27:32.110Z,41.16
2019-03-24T13:29:56.564Z,41.34
2019-03-24T13:32:21.143Z,41.13
2019-03-24T13:34:45.657Z,41.12
2019-03-24T13:37:10.063Z,41.47
2019-03-24T13:39:34.505Z,39.27
2019-03-24T13:41:58.994Z,38.66
2019-03-24T13:44:23.473Z,39.17
2019-03-24T13:46:47.885Z,40.99
2019-03-24T13:49:12.294Z,41.71
2019-03-24T13:51:36.797Z,41.62
2019-03-24T13:54:01.217Z,39.05
2019-03-24T13:56:25.829Z,38.88
2019-03-24T13:58:50.379Z,37.36
2019-03-24T14:01:15.563Z,37.37
2019-03-24T14:03:39.968Z,40.38
2019-03-24T14:06:04.557Z,37.57
2019-03-24T14:08:28.962Z,38.29
2019-03-24T14:10:53.474Z,36.11
2019-03-24T14:13:17.880Z,34.14
2019-03-24T14:15:42.321Z,32.92
2019-03-24T14:18:06.785Z,29.59
2019-03-24T14:20:42.491Z,26.64
2019-03-24T14:22:57.546Z,24.11
2019-03-24T14:25:22.044Z,24.54
2019-03-24T14:27:46.434Z,24.81
2019-03-24T14:30:11.529Z,23.57
2019-03-24T14:32:36.018Z,23.08
2019-03-24T14:35:00.501Z,24.94
2019-03-24T14:37:25.004Z,24.94
2019-03-24T14:39:49.636Z,22.18
2019-03-24T14:42:14.252Z,22.30
2019-03-24T14:44:38.655Z,23.77
2019-03-24T14:47:03.209Z,24.39
2019-03-24T14:49:27.616Z,21.95
2019-03-24T14:51:52.117Z,25.19
2019-03-24T14:54:16.525Z,26.52
2019-03-24T14:56:40.964Z,28.44
2019-03-24T14:59:05.370Z,27.97
2019-03-24T15:01:29.822Z,22.75
2019-03-24T15:03:54.217Z,23.02
2019-03-24T15:06:18.655Z,22.33
2019-03-24T15:08:44.173Z,23.84
2019-03-24T15:11:08.751Z,22.76
2019-03-24T15:13:33.158Z,25.78
2019-03-24T15:15:57.595Z,27.05
2019-03-24T15:18:22.011Z,27.58
2019-03-24T15:20:46.416Z,25.66
2019-03-24T15:23:10.917Z,25.09
2019-03-24T15:25:35.391Z,25.21
2019-03-24T15:28:00.012Z,26.87
2019-03-24T15:30:24.423Z,26.50
2019-03-24T15:32:49.002Z,24.95
2019-03-24T15:35:13.487Z,23.82
2019-03-24T15:37:37.970Z,25.93
2019-03-24T15:40:02.554Z,23.05
2019-03-24T15:42:27.056Z,25.64
2019-03-24T15:44:51.527Z,22.61
2019-03-24T15:47:16.050Z,21.90
2019-03-24T15:49:40.519Z,22.99
2019-03-24T15:52:10.963Z,23.13
2019-03-24T15:54:51.221Z,25.42
2019-03-24T15:57:15.680Z,25.80
2019-03-24T15:59:41.564Z,26.53
2019-03-24T16:02:06.084Z,27.28
2019-03-24T16:04:30.479Z,29.60
2019-03-24T16:06:54.905Z,28.56
2019-03-24T16:09:19.306Z,26.75
2019-03-24T16:11:43.729Z,28.33
2019-03-24T16:14:08.153Z,29.17
2019-03-24T16:16:32.586Z,28.95
2019-03-24T16:18:56.996Z,30.33
2019-03-24T16:21:27.858Z,31.28
2019-03-24T16:23:47.610Z,29.59
2019-03-24T16:26:12.023Z,29.33
2019-03-24T16:28:36.517Z,31.47
2019-03-24T16:31:00.923Z,35.51
2019-03-24T16:33:25.455Z,36.35
2019-03-24T16:35:50.037Z,35.93
2019-03-24T16:38:14.479Z,35.09
2019-03-24T16:40:41.385Z,37.38
2019-03-24T16:43:05.445Z,37.22
2019-03-24T16:45:29.864Z,37.79
2019-03-24T16:47:54.297Z,37.04
2019-03-24T16:50:18.772Z,36.86
2019-03-24T16:52:43.214Z,37.55
2019-03-24T16:55:08.374Z,36.21
2019-03-24T16:57:32.811Z,35.05
2019-03-24T16:59:57.222Z,34.58
2019-03-24T17:02:21.652Z,35.36
2019-03-24T17:04:46.133Z,35.70
2019-03-24T17:07:10.553Z,34.96
2019-03-24T17:09:34.993Z,34.90
2019-03-24T17:11:59.462Z,34.40
2019-03-24T17:14:24.083Z,34.42
2019-03-24T17:16:48.679Z,34.15
2019-03-24T17:19:13.118Z,34.03
2019-03-24T17:21:37.511Z,36.71
2019-03-24T17:24:01.941Z,35.20
2019-03-24T17:26:26.412Z,35.52
2019-03-24T17:28:52.390Z,36.72
2019-03-24T17:31:16.794Z,38.97
2019-03-24T17:33:41.237Z,39.71
2019-03-24T17:36:05.866Z,39.78
2019-03-24T17:38:30.311Z,40.49
2019-03-24T17:40:54.778Z,40.89
2019-03-24T17:43:19.242Z,41.80
2019-03-24T17:45:43.634Z,42.31
2019-03-24T17:48:08.155Z,42.19
2019-03-24T17:50:32.591Z,42.15
2019-03-24T17:52:57.107Z,42.39
2019-03-24T17:55:27.496Z,43.02
2019-03-24T17:57:47.772Z,44.07
2019-03-24T18:00:16.468Z,44.74
2019-03-24T18:02:41.063Z,44.55
2019-03-24T18:05:06.539Z,44.67
2019-03-24T18:07:30.950Z,45.49
2019-03-24T18:09:55.432Z,44.92
2019-03-24T18:12:19.829Z,44.68
2019-03-24T18:14:44.264Z,43.27
2019-03-24T18:17:08.736Z,43.23
2019-03-24T18:19:33.166Z,44.18
2019-03-24T18:21:57.566Z,44.07
2019-03-24T18:24:22.009Z,44.56
2019-03-24T18:26:46.417Z,45.76
2019-03-24T18:29:10.849Z,45.76
2019-03-24T18:31:35.261Z,46.63
2019-03-24T18:33:59.683Z,46.33
2019-03-24T18:36:25.680Z,46.32
2019-03-24T18:38:51.336Z,44.71
2019-03-24T18:41:15.666Z,43.80
2019-03-24T18:43:40.091Z,43.78
2019-03-24T18:46:06.527Z,44.33
2019-03-24T18:48:31.958Z,44.06
2019-03-24T18:50:56.394Z,44.06
2019-03-24T18:53:20.793Z,45.33
2019-03-24T18:55:45.295Z,44.31
2019-03-24T18:58:09.692Z,43.92
2019-03-24T19:00:34.251Z,44.36
2019-03-24T19:02:58.761Z,44.74
2019-03-24T19:05:23.229Z,44.21
2019-03-24T19:07:47.603Z,43.98
2019-03-24T19:10:13.089Z,43.95
2019-03-24T19:12:37.880Z,44.55
2019-03-24T19:15:02.462Z,44.81
2019-03-24T19:17:26.867Z,45.31
2019-03-24T19:19:51.455Z,44.89
2019-03-24T19:22:16.054Z,46.67
2019-03-24T19:24:40.541Z,47.41
2019-03-24T19:27:05.068Z,46.73
2019-03-24T19:29:29.473Z,46.57
2019-03-24T19:31:53.976Z,45.41
2019-03-24T19:34:18.384Z,45.19
2019-03-24T19:36:43.171Z,45.74
2019-03-24T19:39:08.982Z,46.41
2019-03-24T19:41:33.579Z,45.19
2019-03-24T19:43:57.991Z,45.13
2019-03-24T19:46:22.554Z,45.10
2019-03-24T19:48:46.957Z,45.14
2019-03-24T19:51:11.406Z,45.33
2019-03-24T19:53:35.821Z,46.58
2019-03-24T19:56:00.254Z,46.59
2019-03-24T19:58:24.662Z,46.08
2019-03-24T20:00:49.108Z,45.64
2019-03-24T20:03:13.511Z,45.41
2019-03-24T20:05:37.941Z,45.45
2019-03-24T20:08:02.416Z,45.92
2019-03-24T20:10:26.867Z,45.56
2019-03-24T20:12:51.267Z,45.79
2019-03-24T20:15:15.906Z,45.99
2019-03-24T20:17:40.335Z,46.88
2019-03-24T20:20:05.699Z,47.96
2019-03-24T20:22:30.129Z,47.77
2019-03-24T20:24:54.528Z,49.80
2019-03-24T20:27:18.963Z,49.44
2019-03-24T20:29:43.347Z,51.21
2019-03-24T20:32:07.859Z,52.14
2019-03-24T20:34:32.266Z,51.94
2019-03-24T20:36:56.694Z,52.92
2019-03-24T20:39:21.162Z,53.46
2019-03-24T20:41:45.582Z,53.40
2019-03-24T20:44:11.356Z,53.82
2019-03-24T20:46:36.059Z,53.89
2019-03-24T20:49:00.471Z,54.25
2019-03-24T20:51:24.893Z,54.11
2019-03-24T20:53:49.303Z,53.64
2019-03-24T20:56:13.821Z,53.86
2019-03-24T20:58:38.217Z,53.68
2019-03-24T21:01:02.652Z,54.12
2019-03-24T21:03:27.095Z,53.45
2019-03-24T21:05:51.563Z,54.41
2019-03-24T21:08:16.061Z,54.44
2019-03-24T21:10:40.554Z,54.62
2019-03-24T21:13:05.414Z,54.71
2019-03-24T21:15:29.892Z,54.69
2019-03-24T21:17:54.327Z,54.41
2019-03-24T21:20:18.872Z,54.46
2019-03-24T21:22:43.284Z,54.06
2019-03-24T21:25:08.524Z,54.25
2019-03-24T21:27:32.951Z,54.16
2019-03-24T21:29:58.972Z,54.40
2019-03-24T21:32:23.390Z,54.36
2019-03-24T21:34:47.798Z,52.97
2019-03-24T21:37:12.214Z,54.46
2019-03-24T21:39:36.621Z,53.30
2019-03-24T21:42:01.046Z,55.44
2019-03-24T21:44:25.453Z,54.63
2019-03-24T21:46:49.859Z,54.34
2019-03-24T21:49:14.342Z,55.99
2019-03-24T21:51:38.738Z,55.55
2019-03-24T21:54:03.158Z,54.15
2019-03-24T21:56:27.564Z,54.57
2019-03-24T21:58:52.011Z,54.53
2019-03-24T22:01:16.400Z,55.08
2019-03-24T22:03:40.827Z,54.26
2019-03-24T22:06:05.368Z,54.88
2019-03-24T22:08:29.894Z,55.46
2019-03-24T22:10:54.352Z,55.91
2019-03-24T22:13:18.778Z,55.42
2019-03-24T22:15:43.195Z,54.57
2019-03-24T22:18:08.172Z,54.16
2019-03-24T22:20:32.619Z,54.51
2019-03-24T22:22:57.059Z,54.32
2019-03-24T22:25:21.484Z,55.60
2019-03-24T22:27:45.987Z,55.86
2019-03-24T22:30:11.014Z,56.46
2019-03-24T22:32:35.429Z,55.83
2019-03-24T22:34:59.840Z,54.21
2019-03-24T22:37:24.253Z,54.73
2019-03-24T22:39:48.675Z,54.63
2019-03-24T22:42:13.107Z,55.26
2019-03-24T22:44:37.617Z,54.56
2019-03-24T22:47:02.027Z,55.15
2019-03-24T22:49:26.467Z,54.35
2019-03-24T22:51:50.893Z,54.43
2019-03-24T22:54:15.320Z,54.33
2019-03-24T22:56:39.744Z,54.37
2019-03-24T22:59:04.209Z,54.25
2019-03-24T23:01:28.679Z,55.49
2019-03-24T23:03:53.317Z,55.41
2019-03-24T23:06:17.782Z,54.92
2019-03-24T23:08:42.271Z,54.41
2019-03-24T23:11:06.741Z,54.77
2019-03-24T23:13:31.239Z,55.10
2019-03-24T23:15:55.641Z,55.34
2019-03-24T23:18:20.105Z,56.04
2019-03-24T23:20:45.468Z,56.03
2019-03-24T23:23:09.938Z,56.50
2019-03-24T23:25:34.501Z,56.71
2019-03-24T23:27:58.984Z,55.44
2019-03-24T23:30:23.483Z,56.37
2019-03-24T23:32:47.882Z,56.77
2019-03-24T23:35:12.388Z,56.47
2019-03-24T23:37:36.856Z,55.87
2019-03-24T23:40:01.293Z,56.55
2019-03-24T23:42:25.764Z,57.44
2019-03-24T23:44:50.192Z,58.38
2019-03-24T23:47:14.594Z,58.58
2019-03-24T23:49:40.652Z,58.49
2019-03-24T23:52:05.182Z,58.97
2019-03-24T23:54:29.610Z,60.73
2019-03-24T23:56:54.021Z,60.94
2019-03-24T23:59:18.421Z,60.93
